Faneromeni — SVKG — position and weather

sailwx.info

Track history (hours):
 
Tides and Currents Weather Stations Pressure Air Temp Water Temp Dewpoint Dewpoint Depression Visibility Wind Speed Wind Dir Waves Ship Positions

Faneromeni

Last reported at 2014-Jul-13 00:10 UTC. Time now 2014-Jul-25 06:54 UTC.
Position N 31°23' E 032°21'.
Warning: this ship's position is 12 days out of date.

Length 230 m; draft 12.5 m.

Type: Cargo ship. MMSI: 240576000.

Date/timePositionNaut miles runAvg speedWind from/ knotsBaromVisibWave heightAir tempDewpointWater temp
2014-Jul-13 00:10N 31°23' E 032°21'1 0.6
2014-Jul-12 22:19N 31°23' E 032°20'0 0.0
2014-Jul-12 21:31N 31°23' E 032°20'0 0.0
2014-Jul-12 20:31N 31°23' E 032°20'0 0.0
2014-Jul-12 19:31N 31°23' E 032°20'0 0.0
2014-Jul-12 18:31N 31°23' E 032°20'0 0.0
2014-Jul-12 17:31N 31°23' E 032°20'0 0.0
2014-Jul-12 16:31N 31°23' E 032°20'0 0.0
2014-Jul-12 15:31N 31°23' E 032°20'0 0.0
2014-Jul-12 13:31N 31°23' E 032°20'0 0.0
2014-Jul-12 12:31N 31°23' E 032°20'0 0.0
2014-Jul-12 11:16N 31°23' E 032°20'0 0.0
2014-Jul-12 10:31N 31°23' E 032°20'3 0.9
2014-Jul-12 07:17N 31°25' E 032°18'810.5
2014-Jul-12 06:29N 31°32' E 032°12'1311.1
2014-Jul-12 05:20N 31°41' E 032°02'911.0
2014-Jul-12 04:29N 31°48' E 031°54'1311.3
2014-Jul-12 03:19N 31°58' E 031°43'911.7
2014-Jul-12 02:33N 32°04' E 031°36'1211.5
2014-Jul-12 01:30N 32°13' E 031°27'1111.1
2014-Jul-12 00:33N 32°21' E 031°18'1111.0
2014-Jul-11 23:33N 32°29' E 031°09'1110.9
2014-Jul-11 22:33N 32°37' E 031°01'1110.8
2014-Jul-11 21:33N 32°45' E 030°52'1110.6
2014-Jul-11 20:33N 32°53' E 030°43'1110.8
2014-Jul-11 19:30N 33°01' E 030°34'1010.8
2014-Jul-11 18:33N 33°08' E 030°26'1111.0
2014-Jul-11 17:33N 33°17' E 030°17'1110.9
2014-Jul-11 16:33N 33°25' E 030°09'1110.8
2014-Jul-11 15:33N 33°33' E 029°60'1111.3
2014-Jul-11 14:33N 33°41' E 029°50'1313.1
2014-Jul-11 13:33N 33°50' E 029°40'1313.4
2014-Jul-11 12:33N 34°00' E 029°29'1312.8
2014-Jul-11 11:33N 34°10' E 029°18'1111.2
2014-Jul-11 10:33N 34°18' E 029°09'15110.8
2014-Jul-10 20:33N 36°14' E 027°11'1110.8
2014-Jul-10 19:33N 36°21' E 027°01'3510.8
2014-Jul-10 16:16N 36°45' E 026°28'810.7
2014-Jul-10 15:32N 36°50' E 026°21'1111.0
2014-Jul-10 14:33N 36°59' E 026°13'1110.9
2014-Jul-10 13:33N 37°09' E 026°08'1110.9
2014-Jul-10 12:33N 37°18' E 026°01'1110.7
2014-Jul-10 11:33N 37°27' E 025°53'1110.8
2014-Jul-10 10:33N 37°35' E 025°44'1111.0
2014-Jul-10 09:33N 37°44' E 025°36'12810.7
2014-Jul-09 21:33N 39°52' E 025°48'1110.9
2014-Jul-09 20:33N 39°60' E 025°58'1110.7
2014-Jul-09 19:33N 40°02' E 026°12'1211.9
2014-Jul-09 18:33N 40°10' E 026°23'1312.9
2014-Jul-09 17:33N 40°19' E 026°36'1211.2
2014-Jul-09 16:27N 40°27' E 026°47'1212.1
2014-Jul-09 15:30N 40°33' E 027°01'124 4.1
2014-Jul-08 09:33N 41°56' E 029°03'134 3.4
2014-Jul-06 18:17N 44°09' E 028°39'  
Track history (hours):
 
Tides and Currents Weather Stations Pressure Air Temp Water Temp Dewpoint Dewpoint Depression Visibility Wind Speed Wind Dir Waves Ship Positions

Faneromeni

Last reported at 2014-Jul-13 00:10 UTC. Time now 2014-Jul-25 06:54 UTC.
Position N 31°23' E 032°21'.
Warning: this ship's position is 12 days out of date.

Length 230 m; draft 12.5 m.

Type: Cargo ship. MMSI: 240576000.

Date/timePositionNaut miles runAvg speedWind from/ knotsBaromVisibWave heightAir tempDewpointWater temp
2014-Jul-13 00:10N 31°23' E 032°21'1 0.6
2014-Jul-12 22:19N 31°23' E 032°20'0 0.0
2014-Jul-12 21:31N 31°23' E 032°20'0 0.0
2014-Jul-12 20:31N 31°23' E 032°20'0 0.0
2014-Jul-12 19:31N 31°23' E 032°20'0 0.0
2014-Jul-12 18:31N 31°23' E 032°20'0 0.0
2014-Jul-12 17:31N 31°23' E 032°20'0 0.0
2014-Jul-12 16:31N 31°23' E 032°20'0 0.0
2014-Jul-12 15:31N 31°23' E 032°20'0 0.0
2014-Jul-12 13:31N 31°23' E 032°20'0 0.0
2014-Jul-12 12:31N 31°23' E 032°20'0 0.0
2014-Jul-12 11:16N 31°23' E 032°20'0 0.0
2014-Jul-12 10:31N 31°23' E 032°20'3 0.9
2014-Jul-12 07:17N 31°25' E 032°18'810.5
2014-Jul-12 06:29N 31°32' E 032°12'1311.1
2014-Jul-12 05:20N 31°41' E 032°02'911.0
2014-Jul-12 04:29N 31°48' E 031°54'1311.3
2014-Jul-12 03:19N 31°58' E 031°43'911.7
2014-Jul-12 02:33N 32°04' E 031°36'1211.5
2014-Jul-12 01:30N 32°13' E 031°27'1111.1
2014-Jul-12 00:33N 32°21' E 031°18'1111.0
2014-Jul-11 23:33N 32°29' E 031°09'1110.9
2014-Jul-11 22:33N 32°37' E 031°01'1110.8
2014-Jul-11 21:33N 32°45' E 030°52'1110.6
2014-Jul-11 20:33N 32°53' E 030°43'1110.8
2014-Jul-11 19:30N 33°01' E 030°34'1010.8
2014-Jul-11 18:33N 33°08' E 030°26'1111.0
2014-Jul-11 17:33N 33°17' E 030°17'1110.9
2014-Jul-11 16:33N 33°25' E 030°09'1110.8
2014-Jul-11 15:33N 33°33' E 029°60'1111.3
2014-Jul-11 14:33N 33°41' E 029°50'1313.1
2014-Jul-11 13:33N 33°50' E 029°40'1313.4
2014-Jul-11 12:33N 34°00' E 029°29'1312.8
2014-Jul-11 11:33N 34°10' E 029°18'1111.2
2014-Jul-11 10:33N 34°18' E 029°09'15110.8
2014-Jul-10 20:33N 36°14' E 027°11'1110.8
2014-Jul-10 19:33N 36°21' E 027°01'3510.8
2014-Jul-10 16:16N 36°45' E 026°28'810.7
2014-Jul-10 15:32N 36°50' E 026°21'1111.0
2014-Jul-10 14:33N 36°59' E 026°13'1110.9
2014-Jul-10 13:33N 37°09' E 026°08'1110.9
2014-Jul-10 12:33N 37°18' E 026°01'1110.7
2014-Jul-10 11:33N 37°27' E 025°53'1110.8
2014-Jul-10 10:33N 37°35' E 025°44'1111.0
2014-Jul-10 09:33N 37°44' E 025°36'12810.7
2014-Jul-09 21:33N 39°52' E 025°48'1110.9
2014-Jul-09 20:33N 39°60' E 025°58'1110.7
2014-Jul-09 19:33N 40°02' E 026°12'1211.9
2014-Jul-09 18:33N 40°10' E 026°23'1312.9
2014-Jul-09 17:33N 40°19' E 026°36'1211.2
2014-Jul-09 16:27N 40°27' E 026°47'1212.1
2014-Jul-09 15:30N 40°33' E 027°01'124 4.1
2014-Jul-08 09:33N 41°56' E 029°03'134 3.4
2014-Jul-06 18:17N 44°09' E 028°39'  

Dump ship's entire track history